Time;durP1;ratioP1;P1;durP2;ratioP2;P2;SDS_P1;SDS_P2;PMS_P1;PMS_P2;Temp;Humidity;BMP_temperature;BMP_pressure;BME280_temperature;BME280_humidity;BME280_pressure;Samples;Min_cycle;Max_cycle;Signal;HPM_P1;HPM_P2
2022/08/25 00:06:40;;;;;;;14.30;7.30;;;;;;;;;;16885155;28;20216;-81
2022/08/25 00:15:00;;;;;;;14.67;7.33;;;;;;;;;;16884563;29;20181;-81
2022/08/25 00:23:20;;;;;;;12.50;7.07;;;;;;;;;;16892349;28;20177;-81
2022/08/25 00:31:41;;;;;;;13.45;7.07;;;;;;;;;;16894003;28;20209;-81
2022/08/25 00:40:03;;;;;;;14.27;6.32;;;;;;;;;;16895726;29;20197;-81
2022/08/25 00:48:23;;;;;;;15.88;7.20;;;;;;;;;;16896931;29;20212;-81
2022/08/25 00:56:44;;;;;;;15.15;6.57;;;;;;;;;;16893591;28;20226;-82
2022/08/25 01:05:04;;;;;;;9.27;6.03;;;;;;;;;;16893444;28;20643;-81
2022/08/25 01:13:27;;;;;;;13.30;6.57;;;;;;;;;;16893215;28;20649;-81
2022/08/25 01:21:48;;;;;;;10.38;6.68;;;;;;;;;;16892747;29;20181;-81
2022/08/25 01:30:09;;;;;;;13.38;7.15;;;;;;;;;;16892149;28;20209;-82
2022/08/25 01:38:29;;;;;;;13.60;6.47;;;;;;;;;;16891718;28;20173;-82
2022/08/25 01:46:51;;;;;;;14.80;7.28;;;;;;;;;;16890216;28;20201;-81
2022/08/25 01:55:11;;;;;;;18.42;7.55;;;;;;;;;;16891102;28;20236;-81
2022/08/25 02:03:32;;;;;;;10.23;7.50;;;;;;;;;;16889561;29;20177;-81
2022/08/25 02:11:52;;;;;;;16.88;7.57;;;;;;;;;;16890028;28;20216;-82
2022/08/25 02:20:13;;;;;;;16.58;7.97;;;;;;;;;;16890035;28;20178;-82
2022/08/25 02:28:33;;;;;;;10.77;7.47;;;;;;;;;;16888381;28;20726;-81
2022/08/25 02:36:54;;;;;;;19.17;7.18;;;;;;;;;;16887972;28;20293;-81
2022/08/25 02:45:14;;;;;;;14.63;7.57;;;;;;;;;;16888111;29;20201;-81
2022/08/25 02:53:38;;;;;;;14.07;7.53;;;;;;;;;;16888020;28;20252;-82
2022/08/25 03:01:58;;;;;;;9.77;7.75;;;;;;;;;;16887196;29;20616;-81
2022/08/25 03:10:19;;;;;;;16.30;8.73;;;;;;;;;;16887391;29;20235;-82
2022/08/25 03:18:40;;;;;;;17.53;8.30;;;;;;;;;;16886877;29;20181;-82
2022/08/25 03:27:01;;;;;;;16.17;8.13;;;;;;;;;;16885553;29;20665;-82
2022/08/25 03:35:21;;;;;;;15.87;8.53;;;;;;;;;;16885296;28;20182;-81
2022/08/25 03:43:42;;;;;;;16.30;8.97;;;;;;;;;;16884790;28;20201;-82
2022/08/25 03:52:02;;;;;;;16.60;8.90;;;;;;;;;;16885733;29;20656;-82
2022/08/25 04:00:23;;;;;;;16.47;8.37;;;;;;;;;;16896811;28;20232;-82
2022/08/25 04:08:43;;;;;;;16.08;8.73;;;;;;;;;;16897164;29;20205;-82
2022/08/25 04:17:03;;;;;;;12.87;8.10;;;;;;;;;;16895953;29;20174;-82
2022/08/25 04:25:24;;;;;;;14.40;8.05;;;;;;;;;;16894688;29;20185;-82
2022/08/25 04:33:46;;;;;;;12.77;8.20;;;;;;;;;;16895019;29;20209;-82
2022/08/25 04:42:07;;;;;;;11.90;7.30;;;;;;;;;;16894659;28;20243;-82
2022/08/25 04:50:28;;;;;;;12.77;7.28;;;;;;;;;;16893733;29;20209;-82
2022/08/25 04:58:48;;;;;;;10.45;6.70;;;;;;;;;;16894247;28;20583;-82
2022/08/25 05:07:09;;;;;;;12.40;6.85;;;;;;;;;;16892212;29;20202;-82
2022/08/25 05:24:08;;;;;;;19.17;7.40;;;;;;;;;;16893020;29;20169;-83
2022/08/25 05:32:28;;;;;;;13.15;6.57;;;;;;;;;;16890937;28;20209;-83
2022/08/25 05:40:55;;;;;;;13.15;7.05;;;;;;;;;;16890839;29;20256;-83
2022/08/25 05:49:16;;;;;;;13.20;7.90;;;;;;;;;;16894702;29;20616;-82
2022/08/25 05:57:36;;;;;;;17.42;8.85;;;;;;;;;;16898554;28;20236;-80
2022/08/25 06:06:04;;;;;;;23.38;9.40;;;;;;;;;;16896852;29;20205;-81
2022/08/25 06:14:24;;;;;;;33.05;30.05;;;;;;;;;;16891441;29;20259;-81
2022/08/25 06:22:45;;;;;;;42.22;38.53;;;;;;;;;;16893392;29;20648;-81
2022/08/25 06:31:05;;;;;;;20.45;9.38;;;;;;;;;;16897359;29;20596;-81
2022/08/25 06:39:26;;;;;;;13.13;8.00;;;;;;;;;;16897684;29;20204;-81
2022/08/25 06:47:46;;;;;;;20.75;12.63;;;;;;;;;;16897031;29;20249;-81
2022/08/25 06:56:07;;;;;;;18.13;8.60;;;;;;;;;;16910426;28;20719;-80
2022/08/25 07:04:27;;;;;;;14.60;9.47;;;;;;;;;;16891608;29;20637;-81
2022/08/25 07:12:48;;;;;;;19.17;8.50;;;;;;;;;;16890314;29;20844;-80
2022/08/25 07:21:08;;;;;;;48.80;44.80;;;;;;;;;;16896910;29;20173;-81
2022/08/25 07:29:30;;;;;;;18.92;10.05;;;;;;;;;;16899356;29;20206;-80
2022/08/25 07:37:51;;;;;;;23.30;20.83;;;;;;;;;;16908522;29;20169;-81
2022/08/25 07:46:12;;;;;;;60.00;55.95;;;;;;;;;;16891124;29;20212;-81
2022/08/25 07:54:33;;;;;;;30.70;27.93;;;;;;;;;;16892700;28;20568;-81
2022/08/25 08:02:53;;;;;;;40.85;37.38;;;;;;;;;;16892039;29;20821;-81
2022/08/25 08:11:18;;;;;;;40.55;37.30;;;;;;;;;;16889148;29;20198;-80
2022/08/25 08:19:38;;;;;;;17.55;7.80;;;;;;;;;;16891064;29;20178;-80
2022/08/25 08:27:59;;;;;;;12.07;7.47;;;;;;;;;;16889997;28;20220;-80
2022/08/25 08:36:20;;;;;;;11.82;7.28;;;;;;;;;;16892639;29;20189;-80
2022/08/25 08:44:44;;;;;;;16.75;7.03;;;;;;;;;;16899729;28;20201;-80
2022/08/25 08:53:08;;;;;;;18.40;7.07;;;;;;;;;;16915836;28;20556;-80
2022/08/25 09:01:30;;;;;;;13.35;6.75;;;;;;;;;;16909376;28;20185;-82
2022/08/25 09:09:50;;;;;;;13.40;6.72;;;;;;;;;;16896436;29;20328;-82
2022/08/25 09:18:20;;;;;;;13.38;6.07;;;;;;;;;;16899189;28;20650;-82
2022/08/25 09:26:40;;;;;;;15.50;5.88;;;;;;;;;;16897759;28;20437;-83
2022/08/25 09:35:12;;;;;;;20.77;6.60;;;;;;;;;;16903844;28;20557;-82
2022/08/25 09:43:34;;;;;;;9.77;5.55;;;;;;;;;;16900817;29;20562;-82
2022/08/25 09:51:56;;;;;;;7.22;4.38;;;;;;;;;;16899784;28;20231;-82
2022/08/25 10:00:17;;;;;;;9.07;5.05;;;;;;;;;;16902070;28;20244;-81
2022/08/25 10:08:43;;;;;;;7.50;4.70;;;;;;;;;;16896278;28;20220;-82
2022/08/25 10:17:11;;;;;;;7.95;4.80;;;;;;;;;;16894731;28;20236;-81
2022/08/25 10:25:31;;;;;;;9.48;4.60;;;;;;;;;;16894195;29;20228;-81
2022/08/25 10:34:07;;;;;;;5.75;4.00;;;;;;;;;;16894176;28;20576;-81
2022/08/25 10:42:39;;;;;;;6.03;4.38;;;;;;;;;;16895339;29;20564;-81
2022/08/25 10:51:11;;;;;;;7.05;4.43;;;;;;;;;;16898639;29;20213;-81
2022/08/25 10:59:31;;;;;;;8.68;4.82;;;;;;;;;;16891176;29;20221;-81
2022/08/25 11:08:10;;;;;;;7.32;5.05;;;;;;;;;;16890728;29;20565;-81
2022/08/25 11:16:33;;;;;;;5.63;5.03;;;;;;;;;;16888976;28;20657;-81
2022/08/25 11:24:53;;;;;;;11.63;5.55;;;;;;;;;;16890644;28;20177;-81
2022/08/25 11:33:15;;;;;;;9.70;4.75;;;;;;;;;;16891067;28;20244;-81
2022/08/25 11:41:35;;;;;;;6.90;4.68;;;;;;;;;;16893741;28;20193;-80
2022/08/25 11:50:05;;;;;;;6.68;5.10;;;;;;;;;;16890332;28;20213;-82
2022/08/25 11:58:42;;;;;;;6.90;4.97;;;;;;;;;;16888692;28;20232;-82
2022/08/25 12:07:05;;;;;;;8.95;5.40;;;;;;;;;;16887608;29;20184;-83
2022/08/25 12:15:31;;;;;;;5.45;4.45;;;;;;;;;;16889080;29;20258;-83
2022/08/25 12:24:00;;;;;;;8.63;4.60;;;;;;;;;;16900632;29;20632;-83
2022/08/25 12:32:37;;;;;;;6.40;4.70;;;;;;;;;;16901141;29;20260;-82
2022/08/25 12:41:08;;;;;;;8.73;4.25;;;;;;;;;;16900492;29;20209;-83
2022/08/25 12:49:28;;;;;;;8.68;3.90;;;;;;;;;;16905196;29;20267;-82
2022/08/25 12:57:56;;;;;;;4.93;4.13;;;;;;;;;;16898632;28;20303;-81
2022/08/25 13:06:36;;;;;;;6.28;4.18;;;;;;;;;;16900283;29;20198;-81
2022/08/25 13:14:58;;;;;;;7.90;4.57;;;;;;;;;;16899452;29;20229;-81
2022/08/25 13:23:22;;;;;;;8.50;4.20;;;;;;;;;;16915804;29;20241;-81
2022/08/25 13:32:00;;;;;;;5.40;4.35;;;;;;;;;;16912894;29;20679;-81
2022/08/25 13:40:25;;;;;;;35.88;32.85;;;;;;;;;;16897503;29;20240;-81
2022/08/25 13:48:45;;;;;;;27.05;24.88;;;;;;;;;;16912023;29;20205;-81
2022/08/25 13:57:10;;;;;;;12.80;11.50;;;;;;;;;;16957827;28;20225;-82
2022/08/25 14:05:33;;;;;;;9.30;8.10;;;;;;;;;;16925500;28;20960;-81
2022/08/25 14:14:00;;;;;;;5.22;4.68;;;;;;;;;;16891359;28;20223;-81
2022/08/25 14:22:21;;;;;;;8.35;5.03;;;;;;;;;;16891296;29;20231;-81
2022/08/25 14:30:43;;;;;;;12.23;9.13;;;;;;;;;;16891282;29;20205;-80
2022/08/25 14:39:05;;;;;;;7.25;3.70;;;;;;;;;;16893167;29;20212;-80
2022/08/25 14:47:25;;;;;;;7.40;4.75;;;;;;;;;;16897071;28;20267;-81
2022/08/25 14:55:46;;;;;;;6.97;4.90;;;;;;;;;;16887634;28;20295;-81
2022/08/25 15:04:09;;;;;;;14.75;13.30;;;;;;;;;;16888915;29;20177;-80
2022/08/25 15:12:30;;;;;;;7.03;3.70;;;;;;;;;;16888573;29;20201;-81
2022/08/25 15:20:50;;;;;;;5.78;4.20;;;;;;;;;;16888161;28;20172;-81
2022/08/25 15:29:10;;;;;;;5.40;3.67;;;;;;;;;;16886055;28;20236;-81
2022/08/25 15:37:31;;;;;;;5.45;3.55;;;;;;;;;;16887005;28;20174;-81
2022/08/25 15:45:51;;;;;;;5.25;3.70;;;;;;;;;;16885437;28;20205;-84
2022/08/25 15:54:13;;;;;;;8.10;4.07;;;;;;;;;;16891800;28;20368;-84
2022/08/25 16:02:33;;;;;;;3.90;3.45;;;;;;;;;;16897718;29;20505;-83
2022/08/25 16:10:54;;;;;;;7.53;5.77;;;;;;;;;;16897503;29;20235;-84
2022/08/25 16:19:14;;;;;;;7.85;7.07;;;;;;;;;;16897345;29;20480;-83
2022/08/25 16:27:35;;;;;;;6.20;4.10;;;;;;;;;;16897922;29;20205;-83
2022/08/25 16:36:05;;;;;;;11.70;4.28;;;;;;;;;;16897740;29;20244;-84
2022/08/25 16:44:25;;;;;;;10.88;9.77;;;;;;;;;;16902934;28;20656;-84
2022/08/25 17:01:25;;;;;;;5.10;4.00;;;;;;;;;;16895088;29;20240;-83
2022/08/25 17:09:46;;;;;;;10.85;5.10;;;;;;;;;;16893134;29;20205;-84
2022/08/25 17:18:06;;;;;;;8.65;4.53;;;;;;;;;;16895048;29;20223;-84
2022/08/25 17:26:27;;;;;;;6.60;4.20;;;;;;;;;;16892956;29;20549;-86
2022/08/25 17:34:48;;;;;;;9.57;5.38;;;;;;;;;;16893855;29;20268;-86
2022/08/25 17:43:08;;;;;;;18.45;8.23;;;;;;;;;;16893263;29;20217;-86
2022/08/25 17:51:29;;;;;;;16.58;6.55;;;;;;;;;;16891736;29;20221;-86
2022/08/25 17:59:49;;;;;;;16.90;7.05;;;;;;;;;;16887825;28;20546;-85
2022/08/25 18:08:09;;;;;;;12.40;6.55;;;;;;;;;;16889663;29;20304;-86
2022/08/25 18:16:31;;;;;;;16.23;5.80;;;;;;;;;;16887917;28;20189;-86
2022/08/25 18:24:51;;;;;;;7.07;4.07;;;;;;;;;;16889726;29;20220;-86
2022/08/25 18:33:11;;;;;;;13.50;4.93;;;;;;;;;;16889080;29;20205;-86
2022/08/25 18:41:33;;;;;;;17.70;15.75;;;;;;;;;;16888042;29;20197;-86
2022/08/25 18:49:53;;;;;;;12.13;5.53;;;;;;;;;;16889254;28;20557;-86
2022/08/25 19:06:36;;;;;;;10.45;4.53;;;;;;;;;;16887933;29;20498;-85
2022/08/25 19:14:57;;;;;;;7.35;4.45;;;;;;;;;;16887376;28;20236;-85
2022/08/25 19:23:18;;;;;;;12.23;5.38;;;;;;;;;;16886787;29;20181;-85
2022/08/25 19:31:40;;;;;;;59.67;55.50;;;;;;;;;;16883585;29;20197;-85
2022/08/25 19:40:01;;;;;;;8.23;5.32;;;;;;;;;;16885339;28;20695;-86
2022/08/25 19:48:21;;;;;;;8.25;5.05;;;;;;;;;;16885777;29;20247;-86
2022/08/25 19:56:42;;;;;;;13.43;5.43;;;;;;;;;;16883622;28;20241;-86
2022/08/25 20:05:03;;;;;;;8.80;5.18;;;;;;;;;;16884148;28;20193;-87
2022/08/25 20:13:23;;;;;;;11.25;5.68;;;;;;;;;;16883705;29;20213;-87
2022/08/25 20:21:43;;;;;;;11.98;5.50;;;;;;;;;;16883666;29;20618;-87
2022/08/25 20:30:09;;;;;;;11.93;5.18;;;;;;;;;;16883650;29;20205;-87
2022/08/25 20:38:30;;;;;;;10.02;5.50;;;;;;;;;;16887292;29;20193;-87
2022/08/25 20:46:51;;;;;;;11.82;7.40;;;;;;;;;;16894470;29;20287;-87
2022/08/25 20:55:11;;;;;;;151.20;139.77;;;;;;;;;;16894471;28;20271;-87
2022/08/25 21:03:31;;;;;;;325.70;301.20;;;;;;;;;;16889158;29;20243;-87
2022/08/25 21:11:52;;;;;;;8.05;6.00;;;;;;;;;;16892635;29;20197;-87
2022/08/25 21:20:13;;;;;;;85.25;79.50;;;;;;;;;;16892275;29;20224;-87
2022/08/25 21:28:34;;;;;;;16.45;15.10;;;;;;;;;;16891643;29;20201;-87
2022/08/25 21:36:56;;;;;;;12.25;10.65;;;;;;;;;;16891532;29;20177;-87
2022/08/25 21:45:16;;;;;;;17.63;16.15;;;;;;;;;;16892721;28;20683;-86
2022/08/25 21:53:37;;;;;;;15.48;14.02;;;;;;;;;;16889002;28;20241;-86
2022/08/25 22:01:58;;;;;;;26.23;24.55;;;;;;;;;;16891127;29;20637;-85
2022/08/25 22:10:19;;;;;;;22.58;20.83;;;;;;;;;;16891467;29;20209;-86
2022/08/25 22:18:39;;;;;;;56.63;52.97;;;;;;;;;;16897716;29;20713;-86
2022/08/25 22:26:59;;;;;;;124.00;117.18;;;;;;;;;;16918061;29;20205;-86
2022/08/25 22:35:20;;;;;;;30.83;28.67;;;;;;;;;;16917086;28;20559;-86
2022/08/25 22:43:41;;;;;;;11.50;6.50;;;;;;;;;;16961683;29;20209;-86
2022/08/25 22:52:02;;;;;;;8.80;5.87;;;;;;;;;;16971167;29;20197;-86
2022/08/25 23:00:22;;;;;;;9.75;5.95;;;;;;;;;;16970020;28;20317;-86
2022/08/25 23:08:43;;;;;;;11.23;6.32;;;;;;;;;;16893579;28;20213;-86
2022/08/25 23:17:04;;;;;;;12.57;6.30;;;;;;;;;;16886388;28;20189;-87
2022/08/25 23:25:24;;;;;;;7.43;6.40;;;;;;;;;;16883081;29;20170;-87
2022/08/25 23:33:45;;;;;;;7.30;5.80;;;;;;;;;;16886355;28;20550;-88
2022/08/25 23:42:07;;;;;;;14.47;6.57;;;;;;;;;;16886315;28;20197;-88
2022/08/25 23:50:27;;;;;;;8.60;6.17;;;;;;;;;;16884869;29;20209;-88
2022/08/25 23:58:48;;;;;;;10.10;6.23;;;;;;;;;;16886346;29;20252;-88
